createdAt,value
2018-04-13T00:01:51.646Z,1.90
2018-04-13T00:04:18.381Z,2.07
2018-04-13T00:06:45.858Z,2.20
2018-04-13T00:09:12.704Z,2.10
2018-04-13T00:11:40.372Z,2.30
2018-04-13T00:14:07.520Z,2.20
2018-04-13T00:16:34.559Z,2.50
2018-04-13T00:19:02.042Z,2.47
2018-04-13T00:21:29.715Z,2.53
2018-04-13T00:23:56.374Z,2.90
2018-04-13T00:26:23.376Z,2.60
2018-04-13T00:28:50.599Z,2.50
2018-04-13T00:31:17.587Z,2.93
2018-04-13T00:33:44.369Z,2.83
2018-04-13T00:36:11.626Z,2.47
2018-04-13T00:38:38.571Z,3.00
2018-04-13T00:41:06.347Z,2.90
2018-04-13T00:43:33.492Z,2.90
2018-04-13T00:46:01.251Z,3.00
2018-04-13T00:48:29.033Z,2.90
2018-04-13T00:50:56.799Z,2.37
2018-04-13T00:53:29.294Z,2.90
2018-04-13T00:55:56.550Z,2.80
2018-04-13T00:58:23.298Z,2.77
2018-04-13T01:00:50.044Z,3.03
2018-04-13T01:03:16.788Z,3.40
2018-04-13T01:05:43.539Z,2.87
2018-04-13T01:08:10.385Z,2.40
2018-04-13T01:10:37.387Z,2.80
2018-04-13T01:13:04.398Z,2.37
2018-04-13T01:15:31.087Z,2.80
2018-04-13T01:17:57.899Z,2.70
2018-04-13T01:20:25.653Z,2.67
2018-04-13T01:22:52.502Z,2.70
2018-04-13T01:25:19.420Z,3.17
2018-04-13T01:27:47.209Z,2.80
2018-04-13T01:30:14.279Z,2.80
2018-04-13T01:32:41.228Z,2.83
2018-04-13T01:35:07.876Z,2.57
2018-04-13T01:37:34.553Z,2.73
2018-04-13T01:40:01.215Z,2.63
2018-04-13T01:42:28.027Z,2.80
2018-04-13T01:44:54.690Z,2.80
2018-04-13T01:47:22.211Z,3.00
2018-04-13T01:49:49.275Z,2.50
2018-04-13T01:52:16.330Z,2.87
2018-04-13T01:54:43.178Z,2.90
2018-04-13T01:57:10.229Z,2.60
2018-04-13T01:59:37.284Z,2.47
2018-04-13T02:02:04.031Z,2.47
2018-04-13T02:04:31.083Z,2.30
2018-04-13T02:06:58.011Z,2.50
2018-04-13T02:09:25.500Z,2.57
2018-04-13T02:11:52.350Z,2.37
2018-04-13T02:14:20.018Z,2.03
2018-04-13T02:16:46.730Z,2.60
2018-04-13T02:19:14.453Z,2.30
2018-04-13T02:21:41.280Z,2.20
2018-04-13T02:24:08.025Z,2.33
2018-04-13T02:26:35.171Z,2.50
2018-04-13T02:29:02.338Z,2.50
2018-04-13T02:31:29.073Z,2.27
2018-04-13T02:33:56.228Z,2.53
2018-04-13T02:36:23.987Z,2.27
2018-04-13T02:38:51.779Z,2.50
2018-04-13T02:41:18.811Z,2.20
2018-04-13T02:43:46.500Z,2.40
2018-04-13T02:46:13.544Z,2.60
2018-04-13T02:48:40.555Z,2.60
2018-04-13T02:51:07.371Z,2.40
2018-04-13T02:53:34.045Z,2.80
2018-04-13T02:56:01.929Z,2.50
2018-04-13T02:58:28.668Z,2.07
2018-04-13T03:00:55.316Z,2.60
2018-04-13T03:03:22.278Z,2.47
2018-04-13T03:05:49.032Z,2.13
2018-04-13T03:08:17.373Z,2.80
2018-04-13T03:10:44.551Z,2.40
2018-04-13T03:13:11.276Z,2.40
2018-04-13T03:15:39.607Z,2.13
2018-04-13T03:18:07.313Z,2.00
2018-04-13T03:20:34.032Z,2.53
2018-04-13T03:23:01.428Z,2.70
2018-04-13T03:25:28.369Z,2.40
2018-04-13T03:27:55.372Z,2.40
2018-04-13T03:30:22.855Z,2.57
2018-04-13T03:32:50.543Z,2.60
2018-04-13T03:35:17.570Z,2.67
2018-04-13T03:37:45.322Z,2.60
2018-04-13T03:40:13.033Z,3.30
2018-04-13T03:42:39.982Z,2.60
2018-04-13T03:45:06.731Z,2.80
2018-04-13T03:47:33.479Z,2.80
2018-04-13T03:50:00.737Z,2.70
2018-04-13T03:52:27.743Z,2.77
2018-04-13T03:54:55.253Z,2.50
2018-04-13T03:57:21.999Z,2.53
2018-04-13T03:59:49.011Z,2.70
2018-04-13T04:02:15.785Z,2.80
2018-04-13T04:04:42.528Z,2.60
2018-04-13T04:07:09.291Z,3.00
2018-04-13T04:09:36.345Z,2.73
2018-04-13T04:12:03.093Z,2.67
2018-04-13T04:14:29.839Z,2.40
2018-04-13T04:16:57.097Z,2.70
2018-04-13T04:19:36.532Z,2.50
2018-04-13T04:22:15.558Z,2.30
2018-04-13T04:24:54.483Z,2.40
2018-04-13T04:27:21.741Z,2.30
2018-04-13T04:29:48.490Z,2.50
2018-04-13T04:32:15.859Z,2.60
2018-04-13T04:34:42.874Z,2.43
2018-04-13T04:37:11.081Z,2.37
2018-04-13T04:39:38.035Z,2.20
2018-04-13T04:42:04.763Z,2.50
2018-04-13T04:44:32.244Z,2.30
2018-04-13T04:46:58.989Z,2.10
2018-04-13T04:49:25.841Z,2.30
2018-04-13T04:51:52.882Z,2.57
2018-04-13T04:54:20.657Z,2.80
2018-04-13T04:56:47.717Z,2.60
2018-04-13T04:59:14.733Z,2.33
2018-04-13T05:01:41.824Z,2.43
2018-04-13T05:04:08.866Z,1.90
2018-04-13T05:06:36.638Z,2.27
2018-04-13T05:09:03.805Z,2.00
2018-04-13T05:11:30.554Z,1.97
2018-04-13T05:13:59.218Z,1.70
2018-04-13T05:16:28.544Z,1.80
2018-04-13T05:18:57.291Z,1.60
2018-04-13T05:21:24.827Z,1.60
2018-04-13T05:23:51.551Z,1.63
2018-04-13T05:26:18.503Z,1.30
2018-04-13T05:28:45.557Z,1.50
2018-04-13T05:31:13.122Z,1.23
2018-04-13T05:33:40.173Z,1.10
2018-04-13T05:36:06.922Z,1.50
2018-04-13T05:38:35.885Z,1.47
2018-04-13T05:41:03.998Z,1.50
2018-04-13T05:43:31.971Z,1.63
2018-04-13T05:45:59.207Z,1.43
2018-04-13T05:48:29.008Z,1.40
2018-04-13T05:50:59.883Z,1.40
2018-04-13T05:53:26.631Z,1.43
2018-04-13T05:55:53.378Z,1.57
2018-04-13T05:58:20.127Z,1.27
2018-04-13T06:00:46.960Z,2.03
2018-04-13T06:03:14.436Z,1.70
2018-04-13T06:05:41.467Z,1.60
2018-04-13T06:08:09.260Z,5.03
2018-04-13T06:10:35.983Z,4.13
2018-04-13T06:13:03.450Z,3.40
2018-04-13T06:15:31.137Z,2.30
2018-04-13T06:17:57.884Z,1.50
2018-04-13T06:20:24.836Z,1.48
2018-04-13T06:22:51.685Z,1.35
2018-04-13T06:25:18.737Z,1.50
2018-04-13T06:27:46.393Z,1.30
2018-04-13T06:30:14.011Z,1.40
2018-04-13T06:32:40.822Z,1.35
2018-04-13T06:35:07.877Z,1.50
2018-04-13T06:37:35.440Z,1.50
2018-04-13T06:40:02.399Z,1.90
2018-04-13T06:42:29.241Z,1.80
2018-04-13T06:44:56.090Z,1.62
2018-04-13T06:47:23.349Z,1.70
2018-04-13T06:49:50.382Z,1.67
2018-04-13T06:52:17.867Z,1.40
2018-04-13T06:54:44.918Z,1.55
2018-04-13T06:57:11.664Z,1.60
2018-04-13T06:59:38.819Z,1.62
2018-04-13T07:02:05.568Z,1.60
2018-04-13T07:04:32.619Z,1.50
2018-04-13T07:06:59.571Z,1.60
2018-04-13T07:09:26.625Z,1.55
2018-04-13T07:11:54.091Z,1.40
2018-04-13T07:14:20.835Z,1.50
2018-04-13T07:16:48.607Z,1.42
2018-04-13T07:19:15.657Z,1.25
2018-04-13T07:21:42.918Z,1.50
2018-04-13T07:24:09.666Z,1.50
2018-04-13T07:26:38.359Z,1.45
2018-04-13T07:29:05.512Z,1.40
2018-04-13T07:31:32.256Z,1.70
2018-04-13T07:33:59.107Z,1.75
2018-04-13T07:36:26.163Z,1.40
2018-04-13T07:38:52.905Z,1.40
2018-04-13T07:41:19.653Z,1.85
2018-04-13T07:43:46.391Z,1.52
2018-04-13T07:46:13.837Z,1.73
2018-04-13T07:48:41.431Z,1.55
2018-04-13T07:51:08.176Z,1.60
2018-04-13T07:53:36.458Z,1.30
2018-04-13T07:56:03.619Z,1.48
2018-04-13T07:58:30.873Z,1.63
2018-04-13T08:00:58.231Z,1.20
2018-04-13T08:03:24.980Z,1.35
2018-04-13T08:05:52.544Z,1.52
2018-04-13T08:08:19.350Z,1.52
2018-04-13T08:10:46.241Z,1.37
2018-04-13T08:13:12.949Z,1.40
2018-04-13T08:15:39.722Z,1.50
2018-04-13T08:18:06.482Z,1.60
2018-04-13T08:20:34.150Z,1.73
2018-04-13T08:23:00.897Z,2.10
2018-04-13T08:25:27.950Z,1.50
2018-04-13T08:27:54.671Z,1.47
2018-04-13T08:30:22.369Z,1.60
2018-04-13T08:32:49.110Z,1.43
2018-04-13T08:35:17.700Z,1.53
2018-04-13T08:37:44.656Z,1.27
2018-04-13T08:40:11.703Z,1.33
2018-04-13T08:42:38.760Z,1.30
2018-04-13T08:45:05.816Z,1.40
2018-04-13T08:47:33.072Z,1.50
2018-04-13T08:50:00.841Z,1.70
2018-04-13T08:52:27.878Z,1.40
2018-04-13T08:54:55.638Z,1.60
2018-04-13T08:57:23.008Z,1.43
2018-04-13T08:59:50.489Z,1.20
2018-04-13T09:02:17.646Z,1.27
2018-04-13T09:04:45.518Z,1.27
2018-04-13T09:07:12.247Z,1.30
2018-04-13T09:09:39.112Z,1.30
2018-04-13T09:12:05.858Z,1.20
2018-04-13T09:14:38.785Z,1.47
2018-04-13T09:17:07.334Z,1.20
2018-04-13T09:19:34.285Z,1.50
2018-04-13T09:22:01.338Z,1.37
2018-04-13T09:24:28.073Z,1.40
2018-04-13T09:26:55.522Z,1.20
2018-04-13T09:29:23.115Z,1.37
2018-04-13T09:31:49.964Z,1.40
2018-04-13T09:34:17.020Z,1.30
2018-04-13T09:36:44.072Z,1.50
2018-04-13T09:39:11.533Z,1.13
2018-04-13T09:41:38.278Z,1.40
2018-04-13T09:44:05.015Z,1.50
2018-04-13T09:46:31.777Z,1.40
2018-04-13T09:48:58.518Z,1.53
2018-04-13T09:51:25.265Z,1.10
2018-04-13T09:53:52.113Z,1.13
2018-04-13T09:56:18.849Z,1.20
2018-04-13T09:58:46.326Z,1.20
2018-04-13T10:01:20.542Z,1.67
2018-04-13T10:03:49.335Z,1.40
2018-04-13T10:06:16.081Z,1.60
2018-04-13T10:08:43.134Z,1.30
2018-04-13T10:11:10.067Z,1.43
2018-04-13T10:13:40.599Z,1.43
2018-04-13T10:16:08.799Z,1.40
2018-04-13T10:18:35.941Z,1.20
2018-04-13T10:21:02.699Z,1.70
2018-04-13T10:23:29.961Z,1.40
2018-04-13T10:25:57.219Z,1.47
2018-04-13T10:28:24.173Z,1.97
2018-04-13T10:30:51.333Z,1.60
2018-04-13T10:33:25.033Z,1.30
2018-04-13T10:35:51.777Z,1.60
2018-04-13T10:38:18.727Z,1.60
2018-04-13T10:40:45.475Z,1.33
2018-04-13T10:43:12.368Z,1.53
2018-04-13T10:45:39.072Z,1.50
2018-04-13T10:48:06.022Z,1.50
2018-04-13T10:50:32.872Z,1.40
2018-04-13T10:52:59.616Z,1.20
2018-04-13T10:55:26.673Z,1.30
2018-04-13T10:57:53.423Z,1.30
2018-04-13T11:00:20.575Z,1.57
2018-04-13T11:02:47.423Z,1.60
2018-04-13T11:05:14.169Z,1.40
2018-04-13T11:07:41.020Z,1.20
2018-04-13T11:10:08.586Z,1.60
2018-04-13T11:12:35.650Z,1.43
2018-04-13T11:15:02.386Z,1.20
2018-04-13T11:17:29.132Z,1.53
2018-04-13T11:19:55.981Z,1.50
2018-04-13T11:22:22.725Z,1.53
2018-04-13T11:24:49.678Z,1.83
2018-04-13T11:27:16.807Z,1.93
2018-04-13T11:29:44.708Z,1.80
2018-04-13T11:32:11.840Z,1.77
2018-04-13T11:34:39.325Z,1.73
2018-04-13T11:37:06.426Z,1.90
2018-04-13T11:39:33.535Z,1.93
2018-04-13T11:42:00.197Z,1.80
2018-04-13T11:44:27.232Z,1.93
2018-04-13T11:46:54.285Z,1.83
2018-04-13T11:49:21.007Z,1.57
2018-04-13T11:51:49.474Z,1.67
2018-04-13T11:54:16.255Z,1.70
2018-04-13T11:56:43.243Z,2.10
2018-04-13T11:59:10.462Z,2.10
2018-04-13T12:01:38.157Z,1.73
2018-04-13T12:04:04.979Z,1.60
2018-04-13T12:06:32.045Z,1.70
2018-04-13T12:08:58.895Z,2.10
2018-04-13T12:11:25.601Z,2.10
2018-04-13T12:13:52.694Z,2.17
2018-04-13T12:16:19.442Z,1.80
2018-04-13T12:18:46.289Z,2.13
2018-04-13T12:21:13.038Z,2.10
2018-04-13T12:23:40.066Z,1.90
2018-04-13T12:26:06.941Z,1.80
2018-04-13T12:28:33.690Z,1.97
2018-04-13T12:31:00.535Z,1.83
2018-04-13T12:33:27.795Z,2.30
2018-04-13T12:35:54.850Z,1.90
2018-04-13T12:38:21.685Z,1.90
2018-04-13T12:40:48.749Z,2.20
2018-04-13T12:43:15.484Z,1.90
2018-04-13T12:45:43.061Z,1.97
2018-04-13T12:48:09.786Z,1.90
2018-04-13T12:50:37.373Z,1.83
2018-04-13T12:53:04.134Z,1.80
2018-04-13T12:55:30.908Z,2.00
2018-04-13T12:57:57.607Z,1.90
2018-04-13T13:00:24.360Z,1.97
2018-04-13T13:02:51.313Z,2.00
2018-04-13T13:05:18.162Z,1.80
2018-04-13T13:07:45.731Z,2.03
2018-04-13T13:10:12.475Z,1.70
2018-04-13T13:12:39.322Z,2.00
2018-04-13T13:15:06.069Z,1.80
2018-04-13T13:17:33.118Z,2.00
2018-04-13T13:20:00.148Z,1.60
2018-04-13T13:22:28.153Z,1.70
2018-04-13T13:24:55.409Z,1.90
2018-04-13T13:27:22.773Z,1.70
2018-04-13T13:29:50.029Z,1.80
2018-04-13T13:32:17.083Z,1.60
2018-04-13T13:34:44.853Z,1.43
2018-04-13T13:37:11.805Z,1.93
2018-04-13T13:39:38.549Z,1.80
2018-04-13T13:42:05.439Z,1.70
2018-04-13T13:44:32.148Z,1.60
2018-04-13T13:46:59.096Z,1.80
2018-04-13T13:49:27.575Z,1.83
2018-04-13T13:51:55.252Z,1.83
2018-04-13T13:54:23.094Z,1.47
2018-04-13T13:59:24.586Z,1.60
2018-04-13T14:01:51.332Z,1.60
2018-04-13T14:04:18.167Z,1.73
2018-04-13T14:06:46.261Z,1.40
2018-04-13T14:09:13.109Z,1.80
2018-04-13T14:11:39.958Z,1.53
2018-04-13T14:14:06.626Z,1.50
2018-04-13T14:16:33.637Z,1.50
2018-04-13T14:19:01.202Z,1.50
2018-04-13T14:21:28.679Z,1.67
2018-04-13T14:23:55.426Z,1.60
2018-04-13T14:26:22.175Z,1.83
2018-04-13T14:28:49.229Z,1.93
2018-04-13T14:31:17.611Z,1.93
2018-04-13T14:33:47.122Z,1.60
2018-04-13T14:36:16.214Z,1.80
2018-04-13T14:38:45.068Z,1.80
2018-04-13T14:41:14.326Z,1.77
2018-04-13T14:43:41.166Z,1.77
2018-04-13T14:46:08.218Z,1.90
2018-04-13T14:48:35.171Z,1.50
2018-04-13T14:51:02.047Z,1.60
2018-04-13T14:53:28.764Z,1.60
2018-04-13T14:55:55.922Z,1.53
2018-04-13T14:58:22.873Z,1.80
2018-04-13T15:00:49.619Z,1.53
2018-04-13T15:03:16.379Z,1.53
2018-04-13T15:05:43.215Z,1.30
2018-04-13T15:08:09.958Z,1.50
2018-04-13T15:10:37.119Z,1.33
2018-04-13T15:13:04.371Z,1.37
2018-04-13T15:15:31.120Z,1.30
2018-04-13T15:17:57.864Z,1.23
2018-04-13T15:20:25.124Z,1.37
2018-04-13T15:22:52.687Z,1.30
2018-04-13T15:25:19.536Z,1.40
2018-04-13T15:27:46.491Z,1.50
2018-04-13T15:30:15.078Z,1.17
2018-04-13T15:32:41.828Z,1.37
2018-04-13T15:35:08.748Z,1.37
2018-04-13T15:37:35.506Z,1.40
2018-04-13T15:40:03.288Z,1.23
2018-04-13T15:42:30.449Z,1.07
2018-04-13T15:44:57.607Z,1.30
2018-04-13T15:47:24.284Z,1.30
2018-04-13T15:49:51.093Z,1.30
2018-04-13T15:52:18.146Z,1.20
2018-04-13T15:54:44.892Z,1.30
2018-04-13T15:57:11.649Z,1.20
2018-04-13T15:59:39.004Z,0.97
2018-04-13T16:02:05.992Z,1.40
2018-04-13T16:04:32.899Z,0.80
2018-04-13T16:07:01.155Z,0.97
2018-04-13T16:09:29.769Z,1.03
2018-04-13T16:11:56.517Z,0.93
2018-04-13T16:14:23.347Z,1.10
2018-04-13T16:16:50.877Z,1.07
2018-04-13T16:19:17.777Z,1.20
2018-04-13T16:21:44.834Z,1.27
2018-04-13T16:24:11.887Z,1.23
2018-04-13T16:26:38.947Z,1.20
2018-04-13T16:29:05.686Z,1.30
2018-04-13T16:31:32.625Z,1.40
2018-04-13T16:34:01.021Z,1.13
2018-04-13T16:36:27.764Z,1.30
2018-04-13T16:38:55.227Z,1.30
2018-04-13T16:41:21.872Z,1.40
2018-04-13T16:43:48.618Z,1.20
2018-04-13T16:46:15.468Z,1.30
2018-04-13T16:48:42.518Z,1.50
2018-04-13T16:51:09.572Z,1.43
2018-04-13T16:53:36.728Z,1.27
2018-04-13T16:56:04.478Z,1.40
2018-04-13T16:58:32.676Z,1.40
2018-04-13T17:01:00.350Z,1.10
2018-04-13T17:03:27.092Z,1.33
2018-04-13T17:05:54.015Z,1.10
2018-04-13T17:08:21.610Z,1.80
2018-04-13T17:10:48.759Z,1.50
2018-04-13T17:13:15.505Z,1.50
2018-04-13T17:15:42.245Z,1.37
2018-04-13T17:18:09.102Z,1.10
2018-04-13T17:20:35.951Z,1.30
2018-04-13T17:23:03.962Z,1.23
2018-04-13T17:25:31.389Z,1.50
2018-04-13T17:27:59.567Z,1.40
2018-04-13T17:30:26.503Z,1.40
2018-04-13T17:32:53.267Z,1.30
2018-04-13T17:35:20.008Z,1.40
2018-04-13T17:37:47.373Z,1.10
2018-04-13T17:40:14.090Z,1.40
2018-04-13T17:42:42.098Z,1.20
2018-04-13T17:45:09.142Z,1.47
2018-04-13T17:47:36.216Z,1.40
2018-04-13T17:50:04.472Z,1.50
2018-04-13T17:52:32.563Z,1.20
2018-04-13T17:54:59.275Z,1.37
2018-04-13T17:57:27.785Z,1.47
2018-04-13T17:59:54.637Z,1.57
2018-04-13T18:02:21.688Z,1.17
2018-04-13T18:04:48.849Z,1.40
2018-04-13T18:07:15.794Z,1.27
2018-04-13T18:09:42.541Z,1.53
2018-04-13T18:12:10.762Z,1.47
2018-04-13T18:14:37.774Z,1.67
2018-04-13T18:17:06.210Z,1.60
2018-04-13T18:19:33.109Z,1.60
2018-04-13T18:21:59.864Z,1.33
2018-04-13T18:24:26.806Z,1.40
2018-04-13T18:26:54.359Z,1.37
2018-04-13T18:29:21.118Z,1.77
2018-04-13T18:31:48.042Z,1.20
2018-04-13T18:34:15.546Z,1.50
2018-04-13T18:36:42.380Z,1.20
2018-04-13T18:39:10.329Z,1.30
2018-04-13T18:41:37.203Z,1.63
2018-04-13T18:44:04.567Z,1.60
2018-04-13T18:46:31.373Z,1.53
2018-04-13T18:48:58.773Z,1.83
2018-04-13T18:51:25.602Z,1.43
2018-04-13T18:53:53.083Z,1.37
2018-04-13T18:56:20.033Z,1.40
2018-04-13T18:58:47.293Z,1.60
2018-04-13T19:01:15.780Z,1.33
2018-04-13T19:03:43.961Z,1.60
2018-04-13T19:06:10.910Z,1.67
2018-04-13T19:08:38.474Z,1.60
2018-04-13T19:11:09.068Z,1.43
2018-04-13T19:13:37.492Z,1.60
2018-04-13T19:16:04.548Z,1.60
2018-04-13T19:18:31.911Z,1.17
2018-04-13T19:21:00.084Z,1.60
2018-04-13T19:23:27.038Z,1.30
2018-04-13T19:25:54.193Z,1.70
2018-04-13T19:28:20.891Z,1.60
2018-04-13T19:30:48.513Z,1.87
2018-04-13T19:33:15.351Z,1.73
2018-04-13T19:35:42.591Z,1.80
2018-04-13T19:38:11.398Z,1.50
2018-04-13T19:40:38.151Z,1.70
2018-04-13T19:43:06.122Z,1.57
2018-04-13T19:45:33.894Z,1.60
2018-04-13T19:48:00.637Z,1.50
2018-04-13T19:50:27.693Z,1.47
2018-04-13T19:52:54.847Z,2.00
2018-04-13T19:55:21.797Z,1.93
2018-04-13T19:57:49.189Z,2.00
2018-04-13T20:00:16.011Z,1.57
2018-04-13T20:02:43.173Z,1.57
2018-04-13T20:05:11.037Z,1.57
2018-04-13T20:07:38.195Z,1.60
2018-04-13T20:10:04.936Z,1.80
2018-04-13T20:12:31.789Z,1.50
2018-04-13T20:14:59.963Z,1.73
2018-04-13T20:17:27.232Z,1.50
2018-04-13T20:19:54.275Z,1.60
2018-04-13T20:22:21.430Z,1.63
2018-04-13T20:24:48.895Z,1.67
2018-04-13T20:27:16.224Z,1.50
2018-04-13T20:29:43.920Z,1.67
2018-04-13T20:32:11.280Z,1.50
2018-04-13T20:34:38.338Z,1.53
2018-04-13T20:37:05.816Z,1.70
2018-04-13T20:39:32.662Z,2.00
2018-04-13T20:42:00.211Z,1.77
2018-04-13T20:44:27.469Z,1.60
2018-04-13T20:46:54.627Z,1.40
2018-04-13T20:49:22.058Z,1.60
2018-04-13T20:51:50.679Z,1.50
2018-04-13T20:54:17.627Z,1.50
2018-04-13T20:56:44.892Z,1.70
2018-04-13T20:59:12.761Z,1.30
2018-04-13T21:01:40.198Z,1.40
2018-04-13T21:04:07.667Z,1.70
2018-04-13T21:06:35.552Z,1.57
2018-04-13T21:09:02.468Z,1.27
2018-04-13T21:11:30.182Z,1.70
2018-04-13T21:13:56.916Z,1.40
2018-04-13T21:16:25.507Z,1.30
2018-04-13T21:18:52.356Z,1.80
2018-04-13T21:21:19.482Z,1.43
2018-04-13T21:23:46.752Z,1.23
2018-04-13T21:26:15.566Z,1.57
2018-04-13T21:28:42.332Z,1.80
2018-04-13T21:31:09.257Z,1.80
2018-04-13T21:33:36.005Z,1.43
2018-04-13T21:36:02.858Z,1.73
2018-04-13T21:38:29.599Z,1.37
2018-04-13T21:40:56.449Z,1.40
2018-04-13T21:43:24.424Z,1.60
2018-04-13T21:45:51.279Z,1.53
2018-04-13T21:48:18.325Z,1.37
2018-04-13T21:50:45.889Z,1.60
2018-04-13T21:53:12.746Z,1.40
2018-04-13T21:55:39.670Z,1.67
2018-04-13T21:58:07.156Z,1.50
2018-04-13T22:00:34.104Z,1.80
2018-04-13T22:03:01.299Z,1.30
2018-04-13T22:05:28.112Z,1.60
2018-04-13T22:07:55.289Z,1.47
2018-04-13T22:10:22.322Z,1.70
2018-04-13T22:13:01.242Z,1.50
2018-04-13T22:15:28.089Z,2.00
2018-04-13T22:17:56.778Z,1.70
2018-04-13T22:20:23.940Z,1.93
2018-04-13T22:22:50.681Z,2.57
2018-04-13T22:25:19.790Z,2.13
2018-04-13T22:27:47.040Z,2.17
2018-04-13T22:30:14.172Z,2.20
2018-04-13T22:32:41.967Z,2.23
2018-04-13T22:35:08.854Z,2.13
2018-04-13T22:37:37.712Z,2.30
2018-04-13T22:40:07.086Z,2.63
2018-04-13T22:42:34.271Z,2.37
2018-04-13T22:45:01.027Z,2.40
2018-04-13T22:47:27.764Z,2.13
2018-04-13T22:49:54.716Z,2.37
2018-04-13T22:52:23.521Z,2.03
2018-04-13T22:54:53.012Z,2.60
2018-04-13T22:57:20.785Z,2.37
2018-04-13T22:59:48.931Z,3.07
2018-04-13T23:02:17.421Z,2.40
2018-04-13T23:04:45.324Z,2.73
2018-04-13T23:07:13.496Z,2.50
2018-04-13T23:09:41.385Z,2.50
2018-04-13T23:12:08.787Z,2.20
2018-04-13T23:14:35.754Z,2.17
2018-04-13T23:17:04.071Z,2.87
2018-04-13T23:19:32.860Z,2.40
2018-04-13T23:22:00.129Z,2.20
2018-04-13T23:24:29.643Z,2.20
2018-04-13T23:26:58.766Z,2.00
2018-04-13T23:29:25.472Z,2.10
2018-04-13T23:31:53.014Z,2.00
2018-04-13T23:34:20.810Z,1.90
2018-04-13T23:36:48.170Z,2.40
2018-04-13T23:39:15.732Z,2.60
2018-04-13T23:41:42.600Z,2.10
2018-04-13T23:44:10.495Z,1.93
2018-04-13T23:46:37.307Z,2.27
2018-04-13T23:49:05.278Z,2.30
2018-04-13T23:51:32.846Z,1.83
2018-04-13T23:54:00.102Z,1.70
2018-04-13T23:56:26.853Z,2.03
2018-04-13T23:58:53.800Z,1.97
